createdAt,value
2023-10-17T00:00:30.239Z,2.83
2023-10-17T00:03:01.031Z,2.20
2023-10-17T00:05:32.524Z,2.67
2023-10-17T00:08:06.102Z,2.60
2023-10-17T00:10:42.705Z,2.35
2023-10-17T00:13:26.410Z,2.60
2023-10-17T00:15:55.463Z,2.33
2023-10-17T00:18:26.670Z,2.65
2023-10-17T00:21:06.216Z,2.58
2023-10-17T00:23:36.453Z,2.67
2023-10-17T00:26:10.275Z,2.55
2023-10-17T00:28:41.914Z,2.47
2023-10-17T00:31:11.952Z,2.63
2023-10-17T00:33:43.222Z,2.42
2023-10-17T00:36:15.873Z,2.30
2023-10-17T00:38:47.318Z,2.28
2023-10-17T00:41:28.378Z,2.20
2023-10-17T00:43:59.253Z,3.08
2023-10-17T00:46:36.997Z,2.40
2023-10-17T00:49:08.517Z,2.08
2023-10-17T00:51:41.188Z,2.20
2023-10-17T00:54:19.617Z,2.22
2023-10-17T00:59:17.023Z,2.40
2023-10-17T01:01:50.146Z,2.42
2023-10-17T01:04:20.925Z,2.05
2023-10-17T01:06:55.727Z,2.47
2023-10-17T01:09:28.865Z,1.90
2023-10-17T01:11:58.409Z,2.08
2023-10-17T01:14:27.737Z,2.10
2023-10-17T01:16:57.999Z,2.22
2023-10-17T01:19:27.325Z,2.03
2023-10-17T01:21:57.577Z,2.33
2023-10-17T01:24:28.563Z,2.85
2023-10-17T01:26:58.153Z,1.90
2023-10-17T01:29:26.788Z,1.90
2023-10-17T01:31:57.282Z,2.13
2023-10-17T01:34:26.408Z,1.90
2023-10-17T01:36:58.230Z,1.95
2023-10-17T01:39:28.447Z,1.90
2023-10-17T01:41:57.194Z,1.88
2023-10-17T01:44:26.013Z,2.10
2023-10-17T01:46:55.480Z,1.80
2023-10-17T01:49:25.296Z,1.80
2023-10-17T01:51:54.122Z,1.90
2023-10-17T01:54:22.886Z,1.90
2023-10-17T01:56:53.255Z,1.90
2023-10-17T01:59:27.615Z,1.85
2023-10-17T02:01:58.541Z,1.80
2023-10-17T02:04:28.176Z,1.98
2023-10-17T02:06:57.215Z,1.95
2023-10-17T02:09:45.993Z,2.03
2023-10-17T02:12:18.044Z,2.00
2023-10-17T02:14:47.258Z,2.13
2023-10-17T02:17:17.730Z,2.03
2023-10-17T02:19:48.515Z,2.30
2023-10-17T02:22:18.106Z,2.20
2023-10-17T02:24:46.960Z,2.20
2023-10-17T02:27:15.884Z,2.70
2023-10-17T02:29:49.094Z,2.50
2023-10-17T02:32:20.054Z,2.50
2023-10-17T02:34:49.119Z,2.20
2023-10-17T02:37:20.887Z,2.60
2023-10-17T02:39:49.628Z,2.13
2023-10-17T02:42:18.523Z,1.77
2023-10-17T02:44:49.307Z,1.70
2023-10-17T02:47:17.992Z,1.70
2023-10-17T02:49:47.796Z,1.50
2023-10-17T02:52:19.047Z,1.50
2023-10-17T02:55:01.635Z,1.52
2023-10-17T02:57:35.178Z,1.40
2023-10-17T03:00:21.757Z,1.30
2023-10-17T03:02:51.954Z,1.40
2023-10-17T03:05:22.295Z,1.70
2023-10-17T03:07:52.738Z,1.70
2023-10-17T03:10:38.608Z,1.70
2023-10-17T03:13:16.130Z,1.80
2023-10-17T03:15:50.170Z,2.13
2023-10-17T03:18:18.925Z,1.75
2023-10-17T03:20:53.479Z,1.70
2023-10-17T03:23:29.445Z,1.77
2023-10-17T03:26:02.377Z,1.80
2023-10-17T03:28:35.439Z,1.70
2023-10-17T03:31:12.094Z,1.48
2023-10-17T03:33:43.951Z,1.70
2023-10-17T03:36:42.469Z,1.60
2023-10-17T03:39:21.780Z,1.60
2023-10-17T03:41:58.059Z,1.40
2023-10-17T03:44:31.953Z,1.50
2023-10-17T03:47:05.647Z,1.63
2023-10-17T03:49:39.388Z,1.75
2023-10-17T03:52:09.534Z,1.63
2023-10-17T03:54:40.616Z,1.58
2023-10-17T03:57:17.262Z,1.60
2023-10-17T03:59:53.170Z,1.50
2023-10-17T04:02:25.892Z,1.80
2023-10-17T04:04:56.127Z,1.60
2023-10-17T04:07:27.913Z,1.45
2023-10-17T04:10:16.725Z,1.45
2023-10-17T04:12:56.070Z,1.70
2023-10-17T04:15:26.465Z,1.60
2023-10-17T04:18:00.174Z,1.60
2023-10-17T04:20:35.838Z,1.60
2023-10-17T04:23:07.051Z,1.60
2023-10-17T04:25:39.051Z,1.60
2023-10-17T04:28:08.357Z,1.70
2023-10-17T04:30:47.079Z,1.70
2023-10-17T04:33:22.694Z,1.70
2023-10-17T04:36:00.854Z,1.67
2023-10-17T04:38:38.075Z,1.70
2023-10-17T04:41:31.911Z,1.83
2023-10-17T04:44:06.335Z,1.63
2023-10-17T04:46:47.315Z,1.70
2023-10-17T04:49:20.475Z,1.65
2023-10-17T04:51:53.582Z,1.60
2023-10-17T04:54:33.389Z,1.90
2023-10-17T04:57:01.183Z,1.80
2023-10-17T04:59:52.803Z,1.80
2023-10-17T05:02:37.943Z,1.77
2023-10-17T05:05:31.876Z,1.90
2023-10-17T05:08:18.005Z,1.67
2023-10-17T05:11:05.263Z,1.80
2023-10-17T05:13:51.710Z,2.00
2023-10-17T05:16:37.972Z,1.70
2023-10-17T05:19:24.402Z,1.60
2023-10-17T05:22:12.220Z,1.50
2023-10-17T05:24:58.524Z,1.70
2023-10-17T05:27:44.753Z,2.65
2023-10-17T05:30:32.067Z,3.78
2023-10-17T05:33:18.590Z,2.70
2023-10-17T05:36:05.039Z,2.60
2023-10-17T05:38:52.431Z,9.75
2023-10-17T05:41:38.712Z,4.25
2023-10-17T05:44:25.833Z,4.72
2023-10-17T05:47:16.526Z,4.10
2023-10-17T05:50:02.690Z,3.10
2023-10-17T05:52:51.183Z,2.72
2023-10-17T05:55:39.121Z,1.85
2023-10-17T05:58:25.360Z,1.98
2023-10-17T06:01:11.612Z,1.90
2023-10-17T06:03:58.637Z,2.00
2023-10-17T06:06:45.091Z,1.92
2023-10-17T06:09:31.817Z,2.00
2023-10-17T06:12:21.710Z,2.08
2023-10-17T06:15:08.422Z,2.00
2023-10-17T06:17:42.216Z,2.33
2023-10-17T06:20:13.687Z,1.92
2023-10-17T06:23:06.398Z,1.80
2023-10-17T06:25:53.010Z,2.00
2023-10-17T06:28:28.527Z,1.83
2023-10-17T06:31:26.401Z,2.28
2023-10-17T06:33:57.818Z,1.80
2023-10-17T06:36:27.068Z,1.60
2023-10-17T06:38:57.360Z,1.50
2023-10-17T06:41:39.272Z,1.70
2023-10-17T06:44:11.474Z,1.50
2023-10-17T06:46:42.166Z,1.60
2023-10-17T06:49:11.211Z,1.80
2023-10-17T06:51:40.883Z,1.77
2023-10-17T06:54:13.551Z,1.80
2023-10-17T06:56:43.054Z,2.15
2023-10-17T06:59:35.364Z,1.90
2023-10-17T07:02:17.717Z,2.22
2023-10-17T07:04:47.317Z,1.95
2023-10-17T07:07:19.090Z,2.00
2023-10-17T07:09:53.821Z,2.30
2023-10-17T07:12:23.026Z,2.40
2023-10-17T07:14:55.099Z,3.58
2023-10-17T07:17:33.542Z,2.00
2023-10-17T07:20:02.514Z,2.30
2023-10-17T07:22:37.785Z,2.22
2023-10-17T07:25:18.055Z,2.47
2023-10-17T07:27:48.262Z,3.50
2023-10-17T07:30:28.718Z,2.60
2023-10-17T07:32:57.973Z,2.70
2023-10-17T07:35:27.254Z,2.50
2023-10-17T07:38:01.440Z,2.08
2023-10-17T07:40:59.759Z,3.88
2023-10-17T07:43:32.470Z,3.40
2023-10-17T07:46:08.055Z,2.90
2023-10-17T07:48:38.179Z,3.30
2023-10-17T07:51:08.297Z,4.18
2023-10-17T07:53:37.058Z,9.52
2023-10-17T07:56:14.059Z,6.63
2023-10-17T07:58:44.307Z,5.30
2023-10-17T08:01:18.296Z,3.60
2023-10-17T08:03:56.448Z,3.20
2023-10-17T08:06:31.320Z,5.60
2023-10-17T08:09:01.949Z,3.85
2023-10-17T08:11:33.874Z,3.72
2023-10-17T08:14:10.603Z,3.35
2023-10-17T08:16:44.268Z,3.63
2023-10-17T08:19:17.807Z,3.00
2023-10-17T08:22:11.611Z,5.35
2023-10-17T08:24:46.091Z,3.65
2023-10-17T08:27:42.325Z,3.80
2023-10-17T08:30:23.930Z,2.72
2023-10-17T08:33:13.299Z,2.50
2023-10-17T08:35:41.440Z,2.83
2023-10-17T08:38:11.948Z,3.47
2023-10-17T08:40:45.011Z,2.35
2023-10-17T08:43:18.393Z,2.50
2023-10-17T08:45:49.528Z,2.50
2023-10-17T08:48:21.500Z,2.50
2023-10-17T08:50:55.121Z,2.38
2023-10-17T08:53:25.216Z,2.85
2023-10-17T08:55:54.113Z,3.08
2023-10-17T08:58:26.473Z,2.47
2023-10-17T09:00:59.709Z,2.33
2023-10-17T09:03:37.578Z,2.67
2023-10-17T09:06:25.208Z,2.63
2023-10-17T09:08:57.293Z,2.15
2023-10-17T09:11:35.185Z,2.20
2023-10-17T09:14:16.558Z,2.53
2023-10-17T09:16:52.609Z,2.60
2023-10-17T09:19:26.994Z,2.80
2023-10-17T09:21:55.600Z,3.30
2023-10-17T09:24:37.239Z,2.38
2023-10-17T09:27:11.425Z,2.42
2023-10-17T09:29:50.652Z,2.35
2023-10-17T09:32:36.461Z,2.22
2023-10-17T09:35:12.414Z,1.98
2023-10-17T09:37:43.146Z,2.30
2023-10-17T09:40:23.668Z,2.30
2023-10-17T09:42:52.374Z,2.97
2023-10-17T09:45:34.372Z,2.33
2023-10-17T09:48:07.620Z,3.47
2023-10-17T09:50:40.184Z,3.40
2023-10-17T09:53:18.576Z,3.40
2023-10-17T09:55:50.876Z,2.75
2023-10-17T09:58:24.405Z,2.75
2023-10-17T10:00:57.385Z,2.95
2023-10-17T10:03:29.653Z,2.30
2023-10-17T10:06:23.880Z,2.40
2023-10-17T10:09:00.985Z,2.15
2023-10-17T10:12:00.003Z,3.33
2023-10-17T10:15:05.716Z,3.72
2023-10-17T10:17:47.586Z,4.03
2023-10-17T10:20:17.192Z,4.38
2023-10-17T10:22:53.996Z,3.63
2023-10-17T10:25:24.115Z,4.95
2023-10-17T10:28:31.740Z,4.90
2023-10-17T10:31:00.427Z,3.78
2023-10-17T10:33:33.043Z,4.10
2023-10-17T10:36:02.743Z,4.80
2023-10-17T10:38:33.728Z,5.55
2023-10-17T10:41:12.987Z,5.88
2023-10-17T10:43:46.742Z,3.75
2023-10-17T10:46:21.341Z,3.35
2023-10-17T10:48:52.977Z,3.45
2023-10-17T10:51:24.389Z,4.55
2023-10-17T10:53:57.563Z,3.60
2023-10-17T10:56:27.364Z,4.00
2023-10-17T10:58:57.504Z,2.60
2023-10-17T11:01:29.173Z,3.17
2023-10-17T11:04:01.291Z,2.90
2023-10-17T11:06:30.723Z,2.92
2023-10-17T11:09:00.732Z,2.92
2023-10-17T11:11:34.256Z,3.08
2023-10-17T11:14:04.548Z,3.80
2023-10-17T11:16:34.265Z,3.72
2023-10-17T11:19:06.260Z,2.60
2023-10-17T11:21:34.956Z,2.70
2023-10-17T11:24:08.722Z,2.50
2023-10-17T11:26:41.514Z,2.53
2023-10-17T11:29:10.500Z,2.50
2023-10-17T11:31:42.607Z,2.50
2023-10-17T11:34:14.254Z,2.63
2023-10-17T11:36:47.921Z,2.70
2023-10-17T11:39:19.913Z,2.50
2023-10-17T11:41:50.039Z,2.80
2023-10-17T11:44:24.777Z,2.90
2023-10-17T11:47:00.784Z,2.78
2023-10-17T11:49:32.937Z,2.88
2023-10-17T11:52:02.907Z,2.58
2023-10-17T11:54:35.329Z,2.80
2023-10-17T11:57:14.652Z,2.70
2023-10-17T11:59:56.649Z,3.60
2023-10-17T12:02:25.451Z,3.03
2023-10-17T12:04:54.559Z,2.92
2023-10-17T12:07:23.360Z,2.90
2023-10-17T12:09:55.471Z,4.47
2023-10-17T12:12:24.825Z,3.83
2023-10-17T12:14:54.548Z,3.28
2023-10-17T12:17:25.034Z,3.97
2023-10-17T12:19:53.716Z,4.75
2023-10-17T12:22:22.199Z,3.70
2023-10-17T12:24:50.833Z,3.53
2023-10-17T12:27:21.753Z,3.20
2023-10-17T12:29:50.420Z,3.55
2023-10-17T12:32:19.024Z,3.50
2023-10-17T12:34:49.873Z,4.25
2023-10-17T12:37:18.813Z,3.85
2023-10-17T12:39:48.835Z,3.08
2023-10-17T12:42:17.683Z,2.60
2023-10-17T12:44:47.543Z,2.75
2023-10-17T12:47:17.901Z,2.78
2023-10-17T12:49:46.513Z,3.50
2023-10-17T12:52:15.185Z,3.20
2023-10-17T12:54:43.718Z,3.50
2023-10-17T12:57:14.681Z,3.30
2023-10-17T12:59:46.017Z,2.97
2023-10-17T13:02:16.861Z,4.07
2023-10-17T13:04:48.092Z,4.32
2023-10-17T13:07:17.327Z,3.15
2023-10-17T13:09:46.057Z,3.20
2023-10-17T13:12:15.963Z,3.45
2023-10-17T13:14:44.509Z,3.10
2023-10-17T13:17:14.749Z,3.20
2023-10-17T13:19:46.091Z,3.42
2023-10-17T13:22:18.740Z,2.90
2023-10-17T13:24:49.439Z,2.75
2023-10-17T13:27:20.879Z,2.92
2023-10-17T13:29:53.103Z,2.17
2023-10-17T13:32:24.743Z,2.80
2023-10-17T13:34:54.729Z,2.58
2023-10-17T13:37:23.114Z,3.40
2023-10-17T13:39:51.764Z,2.92
2023-10-17T13:42:20.186Z,2.83
2023-10-17T13:44:49.601Z,2.80
2023-10-17T13:47:18.660Z,2.50
2023-10-17T13:49:47.228Z,2.67
2023-10-17T13:52:19.150Z,3.45
2023-10-17T13:54:48.164Z,3.75
2023-10-17T13:57:18.139Z,3.10
2023-10-17T13:59:49.859Z,3.20
2023-10-17T14:02:20.202Z,2.70
2023-10-17T14:04:49.057Z,3.10
2023-10-17T14:07:19.644Z,3.80
2023-10-17T14:09:48.793Z,3.75
2023-10-17T14:12:18.786Z,3.97
2023-10-17T14:14:47.556Z,5.65
2023-10-17T14:17:16.049Z,5.47
2023-10-17T14:19:47.433Z,5.13
2023-10-17T14:22:39.951Z,5.05
2023-10-17T14:25:10.704Z,5.25
2023-10-17T14:27:38.582Z,5.03
2023-10-17T14:30:08.206Z,6.07
2023-10-17T14:32:37.868Z,6.10
2023-10-17T14:35:08.210Z,6.05
2023-10-17T14:37:36.739Z,6.13
2023-10-17T14:40:13.420Z,6.10
2023-10-17T14:42:43.711Z,6.05
2023-10-17T14:45:12.695Z,6.82
2023-10-17T14:47:41.192Z,7.45
2023-10-17T14:50:10.492Z,6.55
2023-10-17T14:52:39.646Z,6.78
2023-10-17T14:55:15.260Z,5.82
2023-10-17T14:57:47.250Z,5.47
2023-10-17T15:00:16.853Z,5.90
2023-10-17T15:02:46.391Z,5.70
2023-10-17T15:05:15.256Z,8.15
2023-10-17T15:07:43.773Z,8.32
2023-10-17T15:10:13.967Z,9.02
2023-10-17T15:12:43.468Z,6.72
2023-10-17T15:15:15.214Z,6.60
2023-10-17T15:17:43.841Z,6.85
2023-10-17T15:20:13.689Z,7.15
2023-10-17T15:22:42.384Z,7.65
2023-10-17T15:25:13.757Z,7.22
2023-10-17T15:27:43.112Z,8.82
2023-10-17T15:30:22.791Z,15.05
2023-10-17T15:32:59.306Z,14.50
2023-10-17T15:35:29.562Z,13.90
2023-10-17T15:37:59.164Z,10.38
2023-10-17T15:40:28.518Z,10.43
2023-10-17T15:42:57.094Z,11.38
2023-10-17T15:45:26.987Z,10.55
2023-10-17T15:47:56.307Z,11.38
2023-10-17T15:50:26.532Z,8.60
2023-10-17T15:52:55.082Z,9.05
2023-10-17T15:55:23.626Z,9.90
2023-10-17T15:57:52.312Z,8.60
2023-10-17T16:00:23.314Z,15.57
2023-10-17T16:02:53.417Z,14.85
2023-10-17T16:05:22.013Z,21.80
2023-10-17T16:07:50.473Z,19.85
2023-10-17T16:10:19.353Z,21.58
2023-10-17T16:12:48.826Z,22.50
2023-10-17T16:15:17.382Z,30.60
2023-10-17T16:17:46.259Z,28.73
2023-10-17T16:20:16.134Z,25.50
2023-10-17T16:22:45.062Z,31.48
2023-10-17T16:25:14.848Z,32.38
2023-10-17T16:27:45.693Z,35.15
2023-10-17T16:30:14.987Z,44.30
2023-10-17T16:32:43.660Z,34.80
2023-10-17T16:35:12.153Z,24.30
2023-10-17T16:37:41.984Z,21.00
2023-10-17T16:40:12.368Z,18.90
2023-10-17T16:42:40.905Z,23.85
2023-10-17T16:45:12.559Z,30.40
2023-10-17T16:47:43.175Z,27.40
2023-10-17T16:50:13.491Z,20.63
2023-10-17T16:52:43.722Z,19.05
2023-10-17T16:55:14.525Z,18.73
2023-10-17T16:57:45.811Z,15.82
2023-10-17T17:00:18.096Z,15.00
2023-10-17T17:02:48.044Z,14.10
2023-10-17T17:05:16.927Z,12.30
2023-10-17T17:07:47.415Z,9.85
2023-10-17T17:10:16.227Z,9.65
2023-10-17T17:12:46.539Z,6.22
2023-10-17T17:15:16.091Z,5.88
2023-10-17T17:17:45.554Z,6.95
2023-10-17T17:20:14.752Z,6.10
2023-10-17T17:22:44.475Z,6.25
2023-10-17T17:25:16.509Z,5.85
2023-10-17T17:27:45.874Z,5.72
2023-10-17T17:30:17.335Z,5.75
2023-10-17T17:32:46.319Z,5.55
2023-10-17T17:35:15.294Z,5.78
2023-10-17T17:37:44.226Z,5.35
2023-10-17T17:40:15.177Z,6.15
2023-10-17T17:42:44.101Z,5.10
2023-10-17T17:45:13.155Z,4.88
2023-10-17T17:47:43.774Z,4.97
2023-10-17T17:50:12.718Z,4.68
2023-10-17T17:52:41.768Z,5.40
2023-10-17T17:55:11.194Z,6.00
2023-10-17T17:57:41.718Z,4.38
2023-10-17T18:00:20.995Z,4.80
2023-10-17T18:02:50.972Z,5.68
2023-10-17T18:05:22.030Z,6.05
2023-10-17T18:07:50.905Z,6.57
2023-10-17T18:10:19.410Z,7.15
2023-10-17T18:12:50.344Z,7.03
2023-10-17T18:15:18.956Z,7.22
2023-10-17T18:17:48.507Z,7.13
2023-10-17T18:20:17.127Z,12.10
2023-10-17T18:22:48.725Z,19.02
2023-10-17T18:25:17.377Z,16.48
2023-10-17T18:27:45.889Z,17.02
2023-10-17T18:30:16.566Z,15.50
2023-10-17T18:32:45.683Z,25.58
2023-10-17T18:35:14.166Z,36.70
2023-10-17T18:37:42.800Z,37.55
2023-10-17T18:40:13.766Z,65.25
2023-10-17T18:42:42.385Z,57.92
2023-10-17T18:45:16.056Z,44.08
2023-10-17T18:47:47.865Z,40.47
2023-10-17T18:50:16.896Z,36.75
2023-10-17T18:52:45.453Z,31.35
2023-10-17T18:55:14.067Z,24.88
2023-10-17T18:57:43.369Z,26.92
2023-10-17T19:00:19.373Z,33.15
2023-10-17T19:02:50.593Z,50.35
2023-10-17T19:05:19.560Z,43.25
2023-10-17T19:07:50.032Z,48.08
2023-10-17T19:10:20.373Z,45.33
2023-10-17T19:12:53.345Z,44.83
2023-10-17T19:15:24.144Z,42.28
2023-10-17T19:17:53.990Z,35.25
2023-10-17T19:20:22.754Z,32.67
2023-10-17T19:22:51.332Z,29.88
2023-10-17T19:25:19.953Z,30.73
2023-10-17T19:27:48.640Z,31.83
2023-10-17T19:30:19.563Z,30.42
2023-10-17T19:32:48.133Z,31.63
2023-10-17T19:35:25.562Z,30.17
2023-10-17T19:37:54.621Z,33.08
2023-10-17T19:40:24.774Z,29.10
2023-10-17T19:42:53.840Z,27.77
2023-10-17T19:45:22.349Z,30.77
2023-10-17T19:47:51.935Z,31.90
2023-10-17T19:50:22.430Z,30.50
2023-10-17T19:52:52.029Z,29.33
2023-10-17T19:55:20.661Z,27.63
2023-10-17T19:57:50.523Z,20.90
2023-10-17T20:00:24.248Z,19.95
2023-10-17T20:02:53.353Z,20.83
2023-10-17T20:05:23.259Z,19.85
2023-10-17T20:07:51.729Z,19.45
2023-10-17T20:10:20.066Z,16.58
2023-10-17T20:12:48.541Z,15.18
2023-10-17T20:15:19.426Z,13.57
2023-10-17T20:17:49.022Z,15.00
2023-10-17T20:20:20.722Z,15.73
2023-10-17T20:22:52.721Z,14.07
2023-10-17T20:25:23.018Z,14.35
2023-10-17T20:27:53.642Z,15.70
2023-10-17T20:30:25.165Z,15.73
2023-10-17T20:32:54.604Z,15.13
2023-10-17T20:35:23.107Z,15.85
2023-10-17T20:37:53.277Z,16.17
2023-10-17T20:40:22.662Z,16.20
2023-10-17T20:42:51.419Z,15.90
2023-10-17T20:45:19.893Z,14.43
2023-10-17T20:47:48.771Z,13.60
2023-10-17T20:50:17.239Z,14.80
2023-10-17T20:52:45.722Z,13.93
2023-10-17T20:55:15.686Z,15.13
2023-10-17T20:57:44.053Z,15.10
2023-10-17T21:00:14.605Z,14.73
2023-10-17T21:02:43.533Z,13.90
2023-10-17T21:05:12.153Z,15.48
2023-10-17T21:07:40.713Z,14.10
2023-10-17T21:10:09.970Z,12.23
2023-10-17T21:12:40.255Z,12.52
2023-10-17T21:15:12.467Z,12.43
2023-10-17T21:17:41.076Z,13.63
2023-10-17T21:20:11.513Z,15.90
2023-10-17T21:22:41.281Z,16.50
2023-10-17T21:25:10.751Z,19.08
2023-10-17T21:27:41.857Z,17.35
2023-10-17T21:30:13.362Z,11.93
2023-10-17T21:32:43.895Z,11.55
2023-10-17T21:35:12.674Z,10.68
2023-10-17T21:37:57.583Z,8.73
2023-10-17T21:40:27.469Z,13.98
2023-10-17T21:42:57.785Z,16.40
2023-10-17T21:45:26.254Z,17.92
2023-10-17T21:47:56.337Z,13.38
2023-10-17T21:50:25.604Z,13.48
2023-10-17T21:52:55.691Z,13.90
2023-10-17T21:55:24.084Z,13.68
2023-10-17T21:57:52.571Z,13.90
2023-10-17T22:00:27.258Z,12.75
2023-10-17T22:02:56.750Z,14.32
2023-10-17T22:05:25.585Z,13.38
2023-10-17T22:07:54.734Z,13.32
2023-10-17T22:10:24.579Z,13.63
2023-10-17T22:12:53.011Z,12.70
2023-10-17T22:15:22.850Z,13.27
2023-10-17T22:17:51.850Z,12.82
2023-10-17T22:20:20.567Z,12.85
2023-10-17T22:22:49.134Z,12.88
2023-10-17T22:25:18.994Z,11.93
2023-10-17T22:27:48.276Z,11.50
2023-10-17T22:30:18.263Z,12.15
2023-10-17T22:32:48.391Z,11.95
2023-10-17T22:35:17.227Z,12.02
2023-10-17T22:37:45.701Z,12.30
2023-10-17T22:40:14.583Z,12.05
2023-10-17T22:42:43.230Z,12.88
2023-10-17T22:45:13.225Z,15.23
2023-10-17T22:47:42.069Z,15.13
2023-10-17T22:50:12.087Z,17.70
2023-10-17T22:52:40.570Z,12.98
2023-10-17T22:55:11.493Z,13.13
2023-10-17T22:57:42.663Z,12.80
2023-10-17T23:00:15.804Z,12.80
2023-10-17T23:02:49.033Z,11.68
2023-10-17T23:05:20.852Z,11.52
2023-10-17T23:07:49.442Z,12.00
2023-10-17T23:10:18.061Z,10.95
2023-10-17T23:12:47.827Z,11.68
2023-10-17T23:15:16.423Z,10.85
2023-10-17T23:17:47.133Z,10.88
2023-10-17T23:20:18.523Z,9.90
2023-10-17T23:22:49.592Z,11.48
2023-10-17T23:25:19.005Z,11.50
2023-10-17T23:27:48.961Z,11.18
2023-10-17T23:30:20.362Z,11.77
2023-10-17T23:32:49.259Z,11.88
2023-10-17T23:35:20.598Z,12.82
2023-10-17T23:37:51.135Z,12.07
2023-10-17T23:40:19.563Z,11.82
2023-10-17T23:42:48.890Z,11.27
2023-10-17T23:45:19.195Z,10.85
2023-10-17T23:47:51.369Z,10.52
2023-10-17T23:50:22.947Z,10.98
2023-10-17T23:52:53.596Z,11.05
2023-10-17T23:55:23.117Z,10.70
2023-10-17T23:57:52.196Z,10.25
